sensor_id;sensor_type;location;lat;lon;timestamp;P1;durP1;ratioP1;P2;durP2;ratioP2
10896;SDS011;5501;51.176;6.470;2022-11-21T00:02:17;20.10;;;3.03;;
10896;SDS011;5501;51.176;6.470;2022-11-21T00:07:19;16.90;;;2.83;;
10896;SDS011;5501;51.176;6.470;2022-11-21T00:12:20;14.70;;;2.97;;
10896;SDS011;5501;51.176;6.470;2022-11-21T00:17:21;8.10;;;2.80;;
10896;SDS011;5501;51.176;6.470;2022-11-21T00:22:23;6.00;;;3.28;;
10896;SDS011;5501;51.176;6.470;2022-11-21T00:27:24;9.65;;;2.95;;
10896;SDS011;5501;51.176;6.470;2022-11-21T00:32:25;11.68;;;3.17;;
10896;SDS011;5501;51.176;6.470;2022-11-21T00:37:27;15.43;;;3.58;;
10896;SDS011;5501;51.176;6.470;2022-11-21T00:42:28;9.07;;;3.50;;
10896;SDS011;5501;51.176;6.470;2022-11-21T00:47:29;12.25;;;3.65;;
10896;SDS011;5501;51.176;6.470;2022-11-21T00:52:31;14.85;;;4.95;;
10896;SDS011;5501;51.176;6.470;2022-11-21T00:57:32;14.93;;;3.67;;
10896;SDS011;5501;51.176;6.470;2022-11-21T01:02:33;10.82;;;3.33;;
10896;SDS011;5501;51.176;6.470;2022-11-21T01:07:35;13.75;;;3.95;;
10896;SDS011;5501;51.176;6.470;2022-11-21T01:12:36;13.93;;;3.45;;
10896;SDS011;5501;51.176;6.470;2022-11-21T01:17:37;19.88;;;4.28;;
10896;SDS011;5501;51.176;6.470;2022-11-21T01:22:39;7.25;;;3.15;;
10896;SDS011;5501;51.176;6.470;2022-11-21T01:27:40;12.57;;;3.40;;
10896;SDS011;5501;51.176;6.470;2022-11-21T01:32:41;13.20;;;3.53;;
10896;SDS011;5501;51.176;6.470;2022-11-21T01:37:45;11.30;;;3.72;;
10896;SDS011;5501;51.176;6.470;2022-11-21T01:42:53;11.77;;;3.90;;
10896;SDS011;5501;51.176;6.470;2022-11-21T01:47:55;26.00;;;5.28;;
10896;SDS011;5501;51.176;6.470;2022-11-21T01:52:56;8.07;;;3.95;;
10896;SDS011;5501;51.176;6.470;2022-11-21T01:57:57;16.85;;;4.07;;
10896;SDS011;5501;51.176;6.470;2022-11-21T02:03:00;13.35;;;3.78;;
10896;SDS011;5501;51.176;6.470;2022-11-21T02:08:24;9.40;;;3.20;;
10896;SDS011;5501;51.176;6.470;2022-11-21T02:13:24;12.57;;;2.85;;
10896;SDS011;5501;51.176;6.470;2022-11-21T02:18:26;13.60;;;3.65;;
10896;SDS011;5501;51.176;6.470;2022-11-21T02:23:36;8.93;;;2.60;;
10896;SDS011;5501;51.176;6.470;2022-11-21T02:28:39;13.32;;;3.15;;
10896;SDS011;5501;51.176;6.470;2022-11-21T02:33:41;14.85;;;3.17;;
10896;SDS011;5501;51.176;6.470;2022-11-21T02:38:42;14.05;;;2.60;;
10896;SDS011;5501;51.176;6.470;2022-11-21T02:43:49;11.50;;;3.80;;
10896;SDS011;5501;51.176;6.470;2022-11-21T02:48:50;14.48;;;3.47;;
10896;SDS011;5501;51.176;6.470;2022-11-21T02:53:52;14.50;;;2.72;;
10896;SDS011;5501;51.176;6.470;2022-11-21T02:58:53;11.52;;;2.63;;
10896;SDS011;5501;51.176;6.470;2022-11-21T03:03:55;12.02;;;3.20;;
10896;SDS011;5501;51.176;6.470;2022-11-21T03:08:56;14.70;;;2.85;;
10896;SDS011;5501;51.176;6.470;2022-11-21T03:13:57;16.58;;;3.22;;
10896;SDS011;5501;51.176;6.470;2022-11-21T03:18:59;15.80;;;3.10;;
10896;SDS011;5501;51.176;6.470;2022-11-21T03:24:00;9.20;;;3.15;;
10896;SDS011;5501;51.176;6.470;2022-11-21T03:29:02;18.30;;;3.35;;
10896;SDS011;5501;51.176;6.470;2022-11-21T03:34:03;14.85;;;3.08;;
10896;SDS011;5501;51.176;6.470;2022-11-21T03:39:04;11.90;;;2.83;;
10896;SDS011;5501;51.176;6.470;2022-11-21T03:44:07;17.25;;;3.83;;
10896;SDS011;5501;51.176;6.470;2022-11-21T03:49:09;12.38;;;3.42;;
10896;SDS011;5501;51.176;6.470;2022-11-21T03:54:10;9.43;;;3.30;;
10896;SDS011;5501;51.176;6.470;2022-11-21T03:59:12;10.30;;;2.95;;
10896;SDS011;5501;51.176;6.470;2022-11-21T04:04:13;13.43;;;3.63;;
10896;SDS011;5501;51.176;6.470;2022-11-21T04:09:14;11.10;;;3.05;;
10896;SDS011;5501;51.176;6.470;2022-11-21T04:14:16;4.43;;;2.53;;
10896;SDS011;5501;51.176;6.470;2022-11-21T04:19:17;7.15;;;3.22;;
10896;SDS011;5501;51.176;6.470;2022-11-21T04:24:19;7.07;;;3.25;;
10896;SDS011;5501;51.176;6.470;2022-11-21T04:29:20;5.82;;;3.20;;
10896;SDS011;5501;51.176;6.470;2022-11-21T04:34:21;8.63;;;3.65;;
10896;SDS011;5501;51.176;6.470;2022-11-21T04:39:23;12.93;;;3.45;;
10896;SDS011;5501;51.176;6.470;2022-11-21T04:44:24;11.75;;;2.70;;
10896;SDS011;5501;51.176;6.470;2022-11-21T04:49:26;11.88;;;2.13;;
10896;SDS011;5501;51.176;6.470;2022-11-21T04:54:27;6.45;;;2.17;;
10896;SDS011;5501;51.176;6.470;2022-11-21T04:59:29;6.85;;;2.50;;
10896;SDS011;5501;51.176;6.470;2022-11-21T05:04:30;10.10;;;2.45;;
10896;SDS011;5501;51.176;6.470;2022-11-21T05:09:32;5.72;;;2.53;;
10896;SDS011;5501;51.176;6.470;2022-11-21T05:14:33;7.40;;;2.72;;
10896;SDS011;5501;51.176;6.470;2022-11-21T05:19:34;7.15;;;3.65;;
10896;SDS011;5501;51.176;6.470;2022-11-21T05:24:36;4.28;;;3.20;;
10896;SDS011;5501;51.176;6.470;2022-11-21T05:29:37;16.48;;;4.85;;
10896;SDS011;5501;51.176;6.470;2022-11-21T05:34:38;8.27;;;4.38;;
10896;SDS011;5501;51.176;6.470;2022-11-21T05:39:40;10.35;;;5.45;;
10896;SDS011;5501;51.176;6.470;2022-11-21T05:44:41;17.38;;;5.55;;
10896;SDS011;5501;51.176;6.470;2022-11-21T05:49:42;9.30;;;5.20;;
10896;SDS011;5501;51.176;6.470;2022-11-21T05:54:44;12.18;;;6.35;;
10896;SDS011;5501;51.176;6.470;2022-11-21T05:59:46;15.88;;;6.32;;
10896;SDS011;5501;51.176;6.470;2022-11-21T06:04:47;10.48;;;6.53;;
10896;SDS011;5501;51.176;6.470;2022-11-21T06:09:49;9.93;;;6.65;;
10896;SDS011;5501;51.176;6.470;2022-11-21T06:14:50;11.05;;;6.30;;
10896;SDS011;5501;51.176;6.470;2022-11-21T06:19:51;11.23;;;6.88;;
10896;SDS011;5501;51.176;6.470;2022-11-21T06:24:53;10.50;;;7.43;;
10896;SDS011;5501;51.176;6.470;2022-11-21T06:29:54;10.38;;;7.03;;
10896;SDS011;5501;51.176;6.470;2022-11-21T06:34:55;23.30;;;7.25;;
10896;SDS011;5501;51.176;6.470;2022-11-21T06:39:57;9.07;;;6.65;;
10896;SDS011;5501;51.176;6.470;2022-11-21T06:44:58;10.43;;;6.90;;
10896;SDS011;5501;51.176;6.470;2022-11-21T06:50:00;14.18;;;6.47;;
10896;SDS011;5501;51.176;6.470;2022-11-21T06:55:01;10.30;;;6.07;;
10896;SDS011;5501;51.176;6.470;2022-11-21T07:00:03;12.25;;;6.32;;
10896;SDS011;5501;51.176;6.470;2022-11-21T07:05:05;13.82;;;6.50;;
10896;SDS011;5501;51.176;6.470;2022-11-21T07:10:06;12.55;;;6.55;;
10896;SDS011;5501;51.176;6.470;2022-11-21T07:15:08;10.77;;;7.07;;
10896;SDS011;5501;51.176;6.470;2022-11-21T07:20:10;10.68;;;5.97;;
10896;SDS011;5501;51.176;6.470;2022-11-21T07:25:11;10.07;;;6.55;;
10896;SDS011;5501;51.176;6.470;2022-11-21T07:30:13;8.88;;;5.95;;
10896;SDS011;5501;51.176;6.470;2022-11-21T07:35:14;11.90;;;7.22;;
10896;SDS011;5501;51.176;6.470;2022-11-21T07:40:16;13.23;;;7.28;;
10896;SDS011;5501;51.176;6.470;2022-11-21T07:45:18;8.38;;;6.25;;
10896;SDS011;5501;51.176;6.470;2022-11-21T07:50:20;8.90;;;6.15;;
10896;SDS011;5501;51.176;6.470;2022-11-21T07:55:22;9.27;;;5.32;;
10896;SDS011;5501;51.176;6.470;2022-11-21T08:00:24;8.20;;;5.70;;
10896;SDS011;5501;51.176;6.470;2022-11-21T08:05:25;11.18;;;5.45;;
10896;SDS011;5501;51.176;6.470;2022-11-21T08:10:26;9.38;;;5.60;;
10896;SDS011;5501;51.176;6.470;2022-11-21T08:15:28;10.52;;;5.90;;
10896;SDS011;5501;51.176;6.470;2022-11-21T08:20:29;13.25;;;6.72;;
10896;SDS011;5501;51.176;6.470;2022-11-21T08:25:31;10.10;;;7.38;;
10896;SDS011;5501;51.176;6.470;2022-11-21T08:30:33;10.50;;;6.80;;
10896;SDS011;5501;51.176;6.470;2022-11-21T08:35:35;13.20;;;6.55;;
10896;SDS011;5501;51.176;6.470;2022-11-21T08:40:38;17.25;;;7.72;;
10896;SDS011;5501;51.176;6.470;2022-11-21T08:45:40;10.88;;;6.63;;
10896;SDS011;5501;51.176;6.470;2022-11-21T08:50:41;12.98;;;7.57;;
10896;SDS011;5501;51.176;6.470;2022-11-21T08:55:43;14.85;;;7.13;;
10896;SDS011;5501;51.176;6.470;2022-11-21T09:00:44;8.80;;;6.28;;
10896;SDS011;5501;51.176;6.470;2022-11-21T09:05:45;13.45;;;6.55;;
10896;SDS011;5501;51.176;6.470;2022-11-21T09:10:47;12.27;;;6.38;;
10896;SDS011;5501;51.176;6.470;2022-11-21T09:15:48;12.85;;;6.35;;
10896;SDS011;5501;51.176;6.470;2022-11-21T09:21:08;10.73;;;5.60;;
10896;SDS011;5501;51.176;6.470;2022-11-21T09:26:13;10.35;;;5.40;;
10896;SDS011;5501;51.176;6.470;2022-11-21T09:31:15;8.98;;;5.70;;
10896;SDS011;5501;51.176;6.470;2022-11-21T09:36:16;6.90;;;4.97;;
10896;SDS011;5501;51.176;6.470;2022-11-21T09:46:47;9.07;;;4.75;;
10896;SDS011;5501;51.176;6.470;2022-11-21T09:51:49;5.43;;;4.18;;
10896;SDS011;5501;51.176;6.470;2022-11-21T09:56:52;11.23;;;4.68;;
10896;SDS011;5501;51.176;6.470;2022-11-21T10:01:54;5.25;;;3.20;;
10896;SDS011;5501;51.176;6.470;2022-11-21T10:12:03;5.47;;;3.15;;
10896;SDS011;5501;51.176;6.470;2022-11-21T10:27:53;4.43;;;2.63;;
10896;SDS011;5501;51.176;6.470;2022-11-21T10:32:56;6.40;;;2.85;;
10896;SDS011;5501;51.176;6.470;2022-11-21T10:37:58;4.35;;;2.58;;
10896;SDS011;5501;51.176;6.470;2022-11-21T10:43:05;6.20;;;2.83;;
10896;SDS011;5501;51.176;6.470;2022-11-21T10:48:27;5.10;;;2.47;;
10896;SDS011;5501;51.176;6.470;2022-11-21T10:53:28;4.57;;;2.00;;
10896;SDS011;5501;51.176;6.470;2022-11-21T10:58:53;7.30;;;2.53;;
10896;SDS011;5501;51.176;6.470;2022-11-21T11:04:05;11.48;;;2.38;;
10896;SDS011;5501;51.176;6.470;2022-11-21T11:09:28;4.22;;;2.03;;
10896;SDS011;5501;51.176;6.470;2022-11-21T11:14:30;8.07;;;2.08;;
10896;SDS011;5501;51.176;6.470;2022-11-21T11:19:32;3.45;;;1.35;;
10896;SDS011;5501;51.176;6.470;2022-11-21T11:24:42;3.17;;;1.90;;
10896;SDS011;5501;51.176;6.470;2022-11-21T11:29:57;5.47;;;1.92;;
10896;SDS011;5501;51.176;6.470;2022-11-21T11:50:59;3.50;;;1.42;;
10896;SDS011;5501;51.176;6.470;2022-11-21T11:56:04;3.92;;;1.40;;
10896;SDS011;5501;51.176;6.470;2022-11-21T12:06:28;9.85;;;1.70;;
10896;SDS011;5501;51.176;6.470;2022-11-21T12:11:55;4.53;;;1.40;;
10896;SDS011;5501;51.176;6.470;2022-11-21T12:17:07;6.72;;;1.23;;
10896;SDS011;5501;51.176;6.470;2022-11-21T12:22:09;4.45;;;1.42;;
10896;SDS011;5501;51.176;6.470;2022-11-21T12:32:28;1.60;;;1.08;;
10896;SDS011;5501;51.176;6.470;2022-11-21T12:48:16;1.17;;;0.95;;
10896;SDS011;5501;51.176;6.470;2022-11-21T12:53:48;3.28;;;0.93;;
10896;SDS011;5501;51.176;6.470;2022-11-21T12:59:13;1.40;;;0.77;;
10896;SDS011;5501;51.176;6.470;2022-11-21T13:04:16;2.00;;;0.90;;
10896;SDS011;5501;51.176;6.470;2022-11-21T13:09:19;0.65;;;0.55;;
10896;SDS011;5501;51.176;6.470;2022-11-21T13:14:24;1.95;;;1.17;;
10896;SDS011;5501;51.176;6.470;2022-11-21T13:56:06;3.40;;;0.98;;
10896;SDS011;5501;51.176;6.470;2022-11-21T14:11:38;2.03;;;1.02;;
10896;SDS011;5501;51.176;6.470;2022-11-21T14:16:43;2.93;;;1.10;;
10896;SDS011;5501;51.176;6.470;2022-11-21T14:21:47;1.77;;;0.82;;
10896;SDS011;5501;51.176;6.470;2022-11-21T14:26:51;0.50;;;0.50;;
10896;SDS011;5501;51.176;6.470;2022-11-21T14:31:53;1.90;;;0.85;;
10896;SDS011;5501;51.176;6.470;2022-11-21T14:36:56;3.20;;;1.25;;
10896;SDS011;5501;51.176;6.470;2022-11-21T14:42:01;3.35;;;1.98;;
10896;SDS011;5501;51.176;6.470;2022-11-21T14:52:16;2.05;;;1.20;;
10896;SDS011;5501;51.176;6.470;2022-11-21T14:57:22;4.30;;;1.10;;
10896;SDS011;5501;51.176;6.470;2022-11-21T15:02:25;1.95;;;1.33;;
10896;SDS011;5501;51.176;6.470;2022-11-21T15:07:28;1.05;;;0.85;;
10896;SDS011;5501;51.176;6.470;2022-11-21T15:12:33;3.03;;;1.23;;
10896;SDS011;5501;51.176;6.470;2022-11-21T15:17:41;3.25;;;1.40;;
10896;SDS011;5501;51.176;6.470;2022-11-21T15:23:03;3.58;;;1.58;;
10896;SDS011;5501;51.176;6.470;2022-11-21T15:28:06;3.22;;;1.27;;
10896;SDS011;5501;51.176;6.470;2022-11-21T15:33:13;1.95;;;1.20;;
10896;SDS011;5501;51.176;6.470;2022-11-21T15:38:30;4.28;;;1.83;;
10896;SDS011;5501;51.176;6.470;2022-11-21T15:48:33;5.28;;;1.33;;
10896;SDS011;5501;51.176;6.470;2022-11-21T15:53:35;4.50;;;1.27;;
10896;SDS011;5501;51.176;6.470;2022-11-21T15:58:36;3.97;;;1.40;;
10896;SDS011;5501;51.176;6.470;2022-11-21T16:03:37;2.55;;;1.63;;
10896;SDS011;5501;51.176;6.470;2022-11-21T16:08:39;2.35;;;1.33;;
10896;SDS011;5501;51.176;6.470;2022-11-21T16:13:41;3.20;;;1.63;;
10896;SDS011;5501;51.176;6.470;2022-11-21T16:18:42;5.65;;;1.60;;
10896;SDS011;5501;51.176;6.470;2022-11-21T16:23:43;4.53;;;2.10;;
10896;SDS011;5501;51.176;6.470;2022-11-21T16:28:45;5.60;;;2.20;;
10896;SDS011;5501;51.176;6.470;2022-11-21T16:33:47;4.35;;;1.75;;
10896;SDS011;5501;51.176;6.470;2022-11-21T16:38:48;7.65;;;1.92;;
10896;SDS011;5501;51.176;6.470;2022-11-21T16:43:54;6.70;;;1.58;;
10896;SDS011;5501;51.176;6.470;2022-11-21T16:48:56;6.80;;;2.22;;
10896;SDS011;5501;51.176;6.470;2022-11-21T16:53:58;10.50;;;2.03;;
10896;SDS011;5501;51.176;6.470;2022-11-21T17:04:08;4.53;;;1.70;;
10896;SDS011;5501;51.176;6.470;2022-11-21T17:09:17;7.20;;;1.80;;
10896;SDS011;5501;51.176;6.470;2022-11-21T17:14:18;5.93;;;1.98;;
10896;SDS011;5501;51.176;6.470;2022-11-21T17:19:20;4.18;;;1.75;;
10896;SDS011;5501;51.176;6.470;2022-11-21T17:24:21;2.72;;;1.70;;
10896;SDS011;5501;51.176;6.470;2022-11-21T17:29:23;2.10;;;1.55;;
10896;SDS011;5501;51.176;6.470;2022-11-21T17:34:24;3.83;;;1.95;;
10896;SDS011;5501;51.176;6.470;2022-11-21T17:39:33;2.40;;;1.60;;
10896;SDS011;5501;51.176;6.470;2022-11-21T17:44:35;4.43;;;1.85;;
10896;SDS011;5501;51.176;6.470;2022-11-21T17:49:36;6.35;;;1.85;;
10896;SDS011;5501;51.176;6.470;2022-11-21T17:54:37;3.95;;;1.88;;
10896;SDS011;5501;51.176;6.470;2022-11-21T17:59:39;3.25;;;1.50;;
10896;SDS011;5501;51.176;6.470;2022-11-21T18:04:40;8.15;;;2.67;;
10896;SDS011;5501;51.176;6.470;2022-11-21T18:09:41;4.85;;;1.85;;
10896;SDS011;5501;51.176;6.470;2022-11-21T18:14:43;5.90;;;2.05;;
10896;SDS011;5501;51.176;6.470;2022-11-21T18:19:44;4.75;;;2.15;;
10896;SDS011;5501;51.176;6.470;2022-11-21T18:24:45;2.63;;;1.98;;
10896;SDS011;5501;51.176;6.470;2022-11-21T18:29:47;5.78;;;2.15;;
10896;SDS011;5501;51.176;6.470;2022-11-21T18:34:48;19.73;;;3.95;;
10896;SDS011;5501;51.176;6.470;2022-11-21T18:39:49;7.00;;;3.20;;
10896;SDS011;5501;51.176;6.470;2022-11-21T18:44:51;5.22;;;2.15;;
10896;SDS011;5501;51.176;6.470;2022-11-21T18:49:53;4.45;;;1.90;;
10896;SDS011;5501;51.176;6.470;2022-11-21T18:54:54;6.47;;;2.53;;
10896;SDS011;5501;51.176;6.470;2022-11-21T18:59:55;8.27;;;2.30;;
10896;SDS011;5501;51.176;6.470;2022-11-21T19:04:57;4.50;;;2.08;;
10896;SDS011;5501;51.176;6.470;2022-11-21T19:09:58;6.20;;;2.72;;
10896;SDS011;5501;51.176;6.470;2022-11-21T19:15:19;10.40;;;2.22;;
10896;SDS011;5501;51.176;6.470;2022-11-21T19:20:21;11.98;;;2.67;;
10896;SDS011;5501;51.176;6.470;2022-11-21T19:25:22;8.20;;;2.42;;
10896;SDS011;5501;51.176;6.470;2022-11-21T19:30:23;4.20;;;2.22;;
10896;SDS011;5501;51.176;6.470;2022-11-21T19:35:25;3.58;;;2.28;;
10896;SDS011;5501;51.176;6.470;2022-11-21T19:40:26;7.47;;;2.00;;
10896;SDS011;5501;51.176;6.470;2022-11-21T19:45:48;5.00;;;2.17;;
10896;SDS011;5501;51.176;6.470;2022-11-21T19:50:59;4.57;;;2.40;;
10896;SDS011;5501;51.176;6.470;2022-11-21T19:56:14;6.43;;;2.28;;
10896;SDS011;5501;51.176;6.470;2022-11-21T20:01:16;8.63;;;2.80;;
10896;SDS011;5501;51.176;6.470;2022-11-21T20:11:19;5.32;;;2.85;;
10896;SDS011;5501;51.176;6.470;2022-11-21T20:16:25;13.00;;;2.78;;
10896;SDS011;5501;51.176;6.470;2022-11-21T20:21:27;5.95;;;2.47;;
10896;SDS011;5501;51.176;6.470;2022-11-21T20:26:29;10.13;;;2.45;;
10896;SDS011;5501;51.176;6.470;2022-11-21T20:31:31;10.05;;;3.40;;
10896;SDS011;5501;51.176;6.470;2022-11-21T20:36:33;5.97;;;2.92;;
10896;SDS011;5501;51.176;6.470;2022-11-21T20:41:36;5.00;;;2.40;;
10896;SDS011;5501;51.176;6.470;2022-11-21T20:46:38;9.05;;;2.42;;
10896;SDS011;5501;51.176;6.470;2022-11-21T20:51:39;7.10;;;2.85;;
10896;SDS011;5501;51.176;6.470;2022-11-21T20:57:00;5.85;;;2.90;;
10896;SDS011;5501;51.176;6.470;2022-11-21T21:02:02;8.23;;;3.33;;
10896;SDS011;5501;51.176;6.470;2022-11-21T21:07:03;4.65;;;2.10;;
10896;SDS011;5501;51.176;6.470;2022-11-21T21:12:05;8.20;;;2.90;;
10896;SDS011;5501;51.176;6.470;2022-11-21T21:17:06;5.60;;;2.75;;
10896;SDS011;5501;51.176;6.470;2022-11-21T21:22:07;5.40;;;2.60;;
10896;SDS011;5501;51.176;6.470;2022-11-21T21:27:09;5.03;;;2.17;;
10896;SDS011;5501;51.176;6.470;2022-11-21T21:32:10;4.03;;;2.65;;
10896;SDS011;5501;51.176;6.470;2022-11-21T21:37:12;6.53;;;1.70;;
10896;SDS011;5501;51.176;6.470;2022-11-21T21:42:13;2.88;;;2.03;;
10896;SDS011;5501;51.176;6.470;2022-11-21T21:47:14;6.03;;;2.47;;
10896;SDS011;5501;51.176;6.470;2022-11-21T21:52:17;9.80;;;2.42;;
10896;SDS011;5501;51.176;6.470;2022-11-21T21:57:18;6.63;;;2.47;;
10896;SDS011;5501;51.176;6.470;2022-11-21T22:02:20;10.48;;;2.45;;
10896;SDS011;5501;51.176;6.470;2022-11-21T22:07:21;7.28;;;2.22;;
10896;SDS011;5501;51.176;6.470;2022-11-21T22:12:23;5.05;;;1.92;;
10896;SDS011;5501;51.176;6.470;2022-11-21T22:17:24;4.22;;;2.75;;
10896;SDS011;5501;51.176;6.470;2022-11-21T22:22:25;5.03;;;1.58;;
10896;SDS011;5501;51.176;6.470;2022-11-21T22:27:27;5.45;;;2.22;;
10896;SDS011;5501;51.176;6.470;2022-11-21T22:32:28;2.97;;;2.28;;
10896;SDS011;5501;51.176;6.470;2022-11-21T22:37:29;8.13;;;3.30;;
10896;SDS011;5501;51.176;6.470;2022-11-21T22:42:31;6.00;;;2.22;;
10896;SDS011;5501;51.176;6.470;2022-11-21T22:47:32;7.32;;;2.55;;
10896;SDS011;5501;51.176;6.470;2022-11-21T22:52:33;8.25;;;2.80;;
10896;SDS011;5501;51.176;6.470;2022-11-21T22:57:35;9.25;;;2.38;;
10896;SDS011;5501;51.176;6.470;2022-11-21T23:02:36;8.45;;;2.33;;
10896;SDS011;5501;51.176;6.470;2022-11-21T23:07:37;10.27;;;2.95;;
10896;SDS011;5501;51.176;6.470;2022-11-21T23:12:39;7.57;;;2.25;;
10896;SDS011;5501;51.176;6.470;2022-11-21T23:17:40;7.13;;;2.38;;
10896;SDS011;5501;51.176;6.470;2022-11-21T23:22:41;11.43;;;2.92;;
10896;SDS011;5501;51.176;6.470;2022-11-21T23:27:43;8.57;;;2.65;;
10896;SDS011;5501;51.176;6.470;2022-11-21T23:32:44;10.07;;;2.15;;
10896;SDS011;5501;51.176;6.470;2022-11-21T23:37:46;6.20;;;1.83;;
10896;SDS011;5501;51.176;6.470;2022-11-21T23:42:47;3.80;;;1.83;;
10896;SDS011;5501;51.176;6.470;2022-11-21T23:47:48;4.00;;;1.52;;
10896;SDS011;5501;51.176;6.470;2022-11-21T23:52:50;2.22;;;1.38;;
10896;SDS011;5501;51.176;6.470;2022-11-21T23:57:51;5.93;;;1.65;;
